Time;durP1;ratioP1;P1;durP2;ratioP2;P2;SDS_P1;SDS_P2;PMS_P1;PMS_P2;Temp;Humidity;BMP_temperature;BMP_pressure;BME280_temperature;BME280_humidity;BME280_pressure;Samples;Min_cycle;Max_cycle;Signal;HPM_P1;HPM_P2
2023/06/09 00:01:08;;;;;;;0.57;0.57;;;25.10;56.40;;;;;;5050206;28;20049;-74
2023/06/09 00:03:37;;;;;;;0.60;0.60;;;25.10;56.40;;;;;;5052449;28;20052;-73
2023/06/09 00:06:04;;;;;;;0.50;0.50;;;25.10;56.40;;;;;;5055328;28;20088;-74
2023/06/09 00:08:32;;;;;;;0.77;0.70;;;25.10;56.40;;;;;;5055168;28;20041;-73
2023/06/09 00:10:59;;;;;;;0.50;0.50;;;25.10;56.40;;;;;;5054177;28;20501;-73
2023/06/09 00:13:26;;;;;;;0.32;0.32;;;25.10;56.40;;;;;;5054227;28;20626;-73
2023/06/09 00:15:53;;;;;;;0.68;0.43;;;25.10;56.40;;;;;;5053795;28;20049;-73
2023/06/09 00:18:24;;;;;;;0.70;0.70;;;25.10;56.40;;;;;;5055338;28;20103;-73
2023/06/09 00:20:51;;;;;;;0.55;0.50;;;25.10;56.40;;;;;;5054283;28;20122;-74
2023/06/09 00:23:19;;;;;;;0.70;0.70;;;25.10;56.30;;;;;;5053271;28;20060;-73
2023/06/09 00:25:46;;;;;;;0.30;0.30;;;25.10;56.30;;;;;;5054900;28;20053;-73
2023/06/09 00:28:13;;;;;;;0.52;0.52;;;25.10;56.30;;;;;;5054790;28;20059;-73
2023/06/09 00:30:40;;;;;;;0.40;0.40;;;25.10;56.30;;;;;;5053609;28;20072;-73
2023/06/09 00:33:07;;;;;;;0.50;0.50;;;25.10;56.30;;;;;;5053885;28;20057;-73
2023/06/09 00:35:35;;;;;;;0.52;0.52;;;25.10;56.30;;;;;;5055251;28;20478;-73
2023/06/09 00:38:02;;;;;;;1.52;0.70;;;25.10;56.30;;;;;;5056021;28;20434;-73
2023/06/09 00:40:29;;;;;;;0.50;0.50;;;25.10;56.30;;;;;;5054601;28;20052;-73
2023/06/09 00:42:57;;;;;;;0.77;0.77;;;25.10;56.40;;;;;;5054520;28;20045;-73
2023/06/09 00:45:24;;;;;;;0.50;0.50;;;25.10;56.30;;;;;;5055287;28;20044;-73
2023/06/09 00:47:51;;;;;;;0.75;0.57;;;25.10;56.40;;;;;;5054809;28;20048;-74
2023/06/09 00:50:20;;;;;;;0.85;0.55;;;25.10;56.40;;;;;;5055738;28;20056;-73
2023/06/09 00:52:48;;;;;;;0.80;0.57;;;25.10;56.40;;;;;;5055009;28;20139;-73
2023/06/09 00:55:17;;;;;;;0.40;0.40;;;25.10;56.40;;;;;;5054122;28;20055;-73
2023/06/09 00:57:47;;;;;;;0.50;0.50;;;25.10;56.40;;;;;;5055272;28;20052;-73
2023/06/09 01:00:16;;;;;;;0.38;0.30;;;25.10;56.40;;;;;;5055070;28;20048;-74
2023/06/09 01:02:43;;;;;;;1.10;0.50;;;25.10;56.40;;;;;;5054012;28;20049;-72
2023/06/09 01:05:12;;;;;;;0.52;0.50;;;25.00;56.40;;;;;;5054333;28;20056;-73
2023/06/09 01:07:57;;;;;;;0.65;0.40;;;25.10;56.40;;;;;;5054959;28;20049;-73
2023/06/09 01:10:34;;;;;;;0.47;0.47;;;25.00;56.40;;;;;;5054047;28;20489;-73
2023/06/09 01:13:30;;;;;;;0.70;0.50;;;25.10;56.50;;;;;;5054569;28;20103;-73
2023/06/09 01:16:03;;;;;;;0.75;0.30;;;25.00;56.40;;;;;;5052440;28;20115;-73
2023/06/09 01:18:33;;;;;;;0.45;0.45;;;25.10;56.50;;;;;;5053639;28;20053;-73
2023/06/09 01:21:20;;;;;;;0.57;0.30;;;25.10;56.50;;;;;;5053150;28;20102;-74
2023/06/09 01:24:15;;;;;;;0.45;0.45;;;25.10;56.50;;;;;;5054481;28;20049;-73
2023/06/09 01:26:43;;;;;;;0.50;0.50;;;25.10;56.50;;;;;;5039618;28;20484;-73
2023/06/09 01:29:13;;;;;;;0.82;0.70;;;25.10;56.50;;;;;;5054430;28;20084;-74
2023/06/09 01:31:41;;;;;;;1.13;0.60;;;25.00;56.40;;;;;;5053455;28;20049;-73
2023/06/09 01:34:08;;;;;;;0.30;0.30;;;25.10;56.50;;;;;;5054763;28;20049;-74
2023/06/09 01:36:36;;;;;;;1.13;0.52;;;25.00;56.30;;;;;;5054391;28;20072;-74
2023/06/09 01:39:04;;;;;;;0.50;0.50;;;25.00;56.30;;;;;;5054047;28;20084;-74
2023/06/09 01:41:31;;;;;;;0.68;0.68;;;25.10;56.40;;;;;;5053661;28;20492;-74
2023/06/09 01:43:58;;;;;;;0.45;0.40;;;25.10;56.40;;;;;;5053786;28;20045;-74
2023/06/09 01:46:25;;;;;;;0.75;0.68;;;25.10;56.30;;;;;;5054004;28;20082;-76
2023/06/09 01:49:22;;;;;;;0.40;0.40;;;25.10;56.40;;;;;;5053827;28;20555;-75
2023/06/09 01:52:11;;;;;;;1.65;0.77;;;25.10;56.30;;;;;;5052740;28;20045;-75
2023/06/09 01:54:44;;;;;;;0.30;0.30;;;25.10;56.30;;;;;;5054468;28;20492;-75
2023/06/09 01:57:20;;;;;;;0.47;0.35;;;25.10;56.30;;;;;;5053625;28;20053;-73
2023/06/09 02:00:00;;;;;;;0.38;0.30;;;25.10;56.30;;;;;;5054095;28;20057;-73
2023/06/09 02:02:31;;;;;;;0.40;0.40;;;25.00;56.30;;;;;;5053430;28;20055;-73
2023/06/09 02:05:01;;;;;;;0.57;0.50;;;25.00;56.30;;;;;;5052711;28;20505;-73
2023/06/09 02:07:30;;;;;;;0.40;0.40;;;25.10;56.40;;;;;;5036251;28;20567;-73
2023/06/09 02:09:57;;;;;;;0.53;0.53;;;25.00;56.40;;;;;;5053797;28;20140;-73
2023/06/09 02:12:31;;;;;;;0.50;0.50;;;25.00;56.40;;;;;;5051586;28;20044;-73
2023/06/09 02:14:59;;;;;;;0.30;0.20;;;25.00;56.40;;;;;;5053282;28;20073;-73
2023/06/09 02:17:32;;;;;;;0.50;0.50;;;25.00;56.40;;;;;;5053293;28;20041;-75
2023/06/09 02:20:00;;;;;;;0.40;0.40;;;25.00;56.40;;;;;;5053092;28;20056;-75
2023/06/09 02:22:27;;;;;;;1.58;0.50;;;25.00;56.40;;;;;;5053085;28;20056;-75
2023/06/09 02:24:55;;;;;;;0.30;0.30;;;25.00;56.40;;;;;;5053088;28;20555;-75
2023/06/09 02:27:22;;;;;;;0.40;0.40;;;25.00;56.40;;;;;;5051740;28;20071;-75
2023/06/09 02:29:49;;;;;;;0.68;0.52;;;25.00;56.40;;;;;;5052574;28;20484;-75
2023/06/09 02:32:16;;;;;;;0.60;0.60;;;25.00;56.40;;;;;;5052752;28;20485;-75
2023/06/09 02:34:45;;;;;;;0.43;0.40;;;25.00;56.40;;;;;;5051269;28;20391;-75
2023/06/09 02:37:12;;;;;;;0.35;0.35;;;25.00;56.40;;;;;;5050926;28;20045;-76
2023/06/09 02:39:39;;;;;;;0.40;0.40;;;25.00;56.40;;;;;;5051576;28;20049;-76
2023/06/09 02:42:07;;;;;;;0.57;0.40;;;24.90;56.40;;;;;;5052507;28;20481;-76
2023/06/09 02:44:37;;;;;;;1.05;0.40;;;24.90;56.40;;;;;;5052038;28;20041;-75
2023/06/09 02:47:07;;;;;;;0.28;0.28;;;25.00;56.50;;;;;;5051718;28;20052;-75
2023/06/09 02:49:34;;;;;;;;;;;25.00;56.50;;;;;;5053212;28;20053;-76
2023/06/09 02:52:01;;;;;;;0.65;0.60;;;24.90;56.40;;;;;;5051416;28;19920;-75
2023/06/09 02:54:28;;;;;;;0.63;0.63;;;24.90;56.40;;;;;;5050927;28;20504;-75
2023/06/09 02:56:56;;;;;;;0.35;0.35;;;24.90;56.40;;;;;;5051092;28;20049;-75
2023/06/09 02:59:23;;;;;;;0.63;0.40;;;24.90;56.40;;;;;;5052642;28;20083;-76
2023/06/09 03:01:50;;;;;;;0.35;0.35;;;25.00;56.50;;;;;;5051073;28;20049;-75
2023/06/09 03:04:17;;;;;;;0.50;0.50;;;25.00;56.40;;;;;;5050646;28;20103;-76
2023/06/09 03:06:48;;;;;;;0.38;0.35;;;25.00;56.40;;;;;;5052196;28;20041;-75
2023/06/09 03:09:16;;;;;;;0.20;0.20;;;25.00;56.40;;;;;;5052652;28;20114;-76
2023/06/09 03:11:43;;;;;;;0.65;0.35;;;25.00;56.40;;;;;;5051139;28;20452;-75
2023/06/09 03:14:10;;;;;;;0.40;0.28;;;25.00;56.30;;;;;;5052146;28;20048;-75
2023/06/09 03:16:37;;;;;;;0.30;0.30;;;25.00;56.30;;;;;;5052707;28;20091;-75
2023/06/09 03:19:05;;;;;;;0.30;0.30;;;25.00;56.30;;;;;;5052683;28;20049;-75
2023/06/09 03:21:35;;;;;;;0.75;0.45;;;25.00;56.20;;;;;;5051589;28;20551;-75
2023/06/09 03:24:07;;;;;;;0.35;0.35;;;25.00;56.20;;;;;;5052944;28;20056;-76
2023/06/09 03:26:34;;;;;;;0.85;0.30;;;25.00;56.20;;;;;;5051446;28;20041;-75
2023/06/09 03:29:01;;;;;;;0.80;0.45;;;25.00;56.20;;;;;;5051042;28;20045;-76
2023/06/09 03:31:28;;;;;;;0.38;0.38;;;25.00;56.20;;;;;;5051172;28;20405;-75
2023/06/09 03:33:56;;;;;;;0.47;0.47;;;25.00;56.20;;;;;;5052944;28;20168;-75
2023/06/09 03:36:24;;;;;;;0.28;0.28;;;25.00;56.20;;;;;;5051781;28;20048;-76
2023/06/09 03:38:51;;;;;;;0.20;0.20;;;25.00;56.20;;;;;;5055214;28;20056;-76
2023/06/09 03:41:18;;;;;;;0.40;0.30;;;25.00;56.70;;;;;;5055365;28;20428;-76
2023/06/09 03:43:45;;;;;;;0.50;0.50;;;25.00;56.20;;;;;;5055964;28;20044;-75
2023/06/09 03:46:13;;;;;;;0.50;0.50;;;25.00;56.20;;;;;;5054365;28;20393;-75
2023/06/09 03:48:40;;;;;;;0.30;0.30;;;25.00;56.20;;;;;;5054447;28;20053;-75
2023/06/09 03:51:07;;;;;;;0.35;0.30;;;25.00;56.20;;;;;;5055145;28;20448;-75
2023/06/09 03:53:35;;;;;;;0.40;0.40;;;25.00;56.20;;;;;;5055961;28;20099;-75
2023/06/09 03:56:02;;;;;;;0.52;0.52;;;25.00;56.20;;;;;;5055204;28;20130;-75
2023/06/09 03:58:29;;;;;;;0.43;0.40;;;25.00;56.20;;;;;;5056524;28;20107;-75
2023/06/09 04:00:56;;;;;;;0.30;0.30;;;25.00;56.20;;;;;;5055012;28;20095;-75
2023/06/09 04:03:24;;;;;;;0.38;0.38;;;25.10;56.20;;;;;;5056148;28;20413;-75
2023/06/09 04:05:51;;;;;;;0.40;0.40;;;25.10;56.10;;;;;;5055254;28;20094;-75
2023/06/09 04:08:18;;;;;;;0.35;0.20;;;25.10;56.00;;;;;;5056155;28;20123;-75
2023/06/09 04:10:45;;;;;;;0.40;0.40;;;25.10;55.90;;;;;;5055451;28;20118;-75
2023/06/09 04:13:13;;;;;;;0.32;0.32;;;25.10;55.90;;;;;;5055086;28;20045;-75
2023/06/09 04:15:40;;;;;;;0.30;0.30;;;25.10;55.80;;;;;;5054115;28;20102;-75
2023/06/09 04:18:08;;;;;;;0.30;0.30;;;25.20;55.80;;;;;;5055738;28;20511;-75
2023/06/09 04:20:35;;;;;;;0.20;0.20;;;25.20;55.70;;;;;;5055371;28;20052;-75
2023/06/09 04:23:02;;;;;;;0.40;0.40;;;25.20;55.70;;;;;;5056152;28;20111;-75
2023/06/09 04:25:30;;;;;;;0.22;0.20;;;25.20;55.60;;;;;;5054999;28;20044;-76
2023/06/09 04:28:00;;;;;;;0.20;0.20;;;25.30;55.60;;;;;;5053831;28;20102;-75
2023/06/09 04:30:29;;;;;;;;;;;25.30;55.50;;;;;;5044061;28;20052;-76
2023/06/09 04:33:04;;;;;;;0.38;0.30;;;25.30;55.40;;;;;;5049019;28;20010;-75
2023/06/09 04:35:32;;;;;;;1.40;0.60;;;25.30;55.30;;;;;;5054752;28;20076;-75
2023/06/09 04:38:03;;;;;;;0.60;0.38;;;25.30;55.40;;;;;;5054935;28;20048;-75
2023/06/09 04:40:30;;;;;;;2.17;0.70;;;25.20;55.50;;;;;;5052561;28;20053;-76
2023/06/09 04:42:59;;;;;;;0.85;0.85;;;25.10;55.70;;;;;;5053917;28;20107;-75
2023/06/09 04:45:33;;;;;;;0.95;0.60;;;25.00;56.20;;;;;;5053310;28;20441;-76
2023/06/09 04:48:05;;;;;;;0.68;0.68;;;24.80;55.70;;;;;;5054431;28;20045;-75
2023/06/09 04:50:33;;;;;;;0.80;0.80;;;24.50;55.10;;;;;;5053877;28;20045;-75
2023/06/09 04:53:04;;;;;;;0.80;0.80;;;24.20;54.80;;;;;;5058466;28;20059;-75
2023/06/09 04:55:32;;;;;;;1.20;1.13;;;23.80;54.40;;;;;;5072871;28;20459;-75
2023/06/09 04:57:59;;;;;;;1.00;0.95;;;23.40;54.60;;;;;;5074353;28;20044;-75
2023/06/09 05:00:27;;;;;;;0.82;0.82;;;23.10;54.90;;;;;;5057792;28;20049;-75
2023/06/09 05:02:58;;;;;;;1.25;1.20;;;22.70;55.30;;;;;;5053513;28;20060;-74
2023/06/09 05:05:25;;;;;;;1.88;1.20;;;22.40;56.80;;;;;;5053324;28;20143;-75
2023/06/09 05:07:53;;;;;;;1.40;1.30;;;22.20;56.90;;;;;;5051656;28;20084;-75
2023/06/09 05:10:21;;;;;;;1.35;1.25;;;22.00;56.70;;;;;;5045504;28;20463;-72
2023/06/09 05:12:48;;;;;;;1.45;1.25;;;21.70;58.40;;;;;;5049884;28;20053;-76
2023/06/09 05:15:16;;;;;;;2.58;1.30;;;21.60;59.00;;;;;;5048437;28;20080;-74
2023/06/09 05:17:43;;;;;;;1.88;1.30;;;21.50;58.10;;;;;;5050573;28;20045;-77
2023/06/09 05:20:11;;;;;;;1.42;1.30;;;21.40;58.60;;;;;;5040663;28;20050;-80
2023/06/09 05:22:38;;;;;;;1.17;1.13;;;21.30;59.60;;;;;;5031693;28;20100;-78
2023/06/09 05:25:08;;;;;;;1.60;1.50;;;21.30;59.00;;;;;;5041757;28;20049;-73
2023/06/09 05:27:36;;;;;;;1.73;1.60;;;21.10;58.60;;;;;;5042594;28;20741;-75
2023/06/09 05:30:03;;;;;;;1.90;1.80;;;21.10;60.10;;;;;;5044612;28;20052;-75
2023/06/09 05:32:31;;;;;;;3.15;1.65;;;21.00;60.10;;;;;;5046295;28;20097;-75
2023/06/09 05:35:00;;;;;;;1.33;1.30;;;21.00;58.90;;;;;;5044896;28;20135;-72
2023/06/09 05:37:27;;;;;;;1.30;1.20;;;20.90;60.10;;;;;;5040908;28;20086;-69
2023/06/09 05:39:54;;;;;;;1.30;1.20;;;20.90;60.10;;;;;;5044544;28;20060;-76
2023/06/09 05:42:22;;;;;;;1.75;1.52;;;20.80;59.10;;;;;;5044207;28;20122;-77
2023/06/09 05:44:49;;;;;;;1.73;1.63;;;20.70;59.60;;;;;;5045959;28;20144;-77
2023/06/09 05:47:17;;;;;;;1.77;1.50;;;20.70;61.00;;;;;;5047583;28;20557;-77
2023/06/09 05:49:44;;;;;;;1.60;1.50;;;20.60;60.40;;;;;;5030260;28;20127;-77
2023/06/09 05:52:11;;;;;;;2.97;2.00;;;20.60;59.40;;;;;;5039779;28;20048;-74
2023/06/09 05:54:39;;;;;;;1.50;1.40;;;20.50;61.00;;;;;;5042376;28;20493;-77
2023/06/09 05:57:07;;;;;;;2.63;1.88;;;20.50;61.10;;;;;;5036233;28;20433;-76
2023/06/09 05:59:35;;;;;;;2.15;1.80;;;20.50;59.80;;;;;;5041758;28;20053;-76
2023/06/09 06:02:02;;;;;;;5.20;2.22;;;20.50;60.20;;;;;;5036307;28;20045;-75
2023/06/09 06:04:30;;;;;;;3.05;2.00;;;20.40;61.50;;;;;;5038763;28;20489;-76
2023/06/09 06:06:58;;;;;;;2.83;1.73;;;20.40;59.70;;;;;;5036007;28;20053;-75
2023/06/09 06:09:25;;;;;;;2.60;2.30;;;20.30;59.50;;;;;;5042443;28;20135;-78
2023/06/09 06:11:56;;;;;;;2.25;1.80;;;20.30;61.50;;;;;;5039026;28;20517;-75
2023/06/09 06:14:23;;;;;;;2.50;2.30;;;20.30;60.40;;;;;;5041321;28;20053;-77
2023/06/09 06:16:50;;;;;;;2.33;1.83;;;20.20;59.20;;;;;;5029819;28;20107;-75
2023/06/09 06:19:17;;;;;;;4.90;1.85;;;20.10;60.70;;;;;;5034980;28;20052;-76
2023/06/09 06:21:45;;;;;;;2.97;1.48;;;20.10;61.90;;;;;;5046850;28;20041;-75
2023/06/09 06:24:13;;;;;;;3.70;2.00;;;20.10;59.80;;;;;;5044541;28;20049;-77
2023/06/09 06:26:40;;;;;;;3.05;1.73;;;20.00;59.70;;;;;;5026431;28;20045;-76
2023/06/09 06:29:07;;;;;;;3.30;1.70;;;20.00;61.10;;;;;;5041031;28;20493;-78
2023/06/09 06:31:34;;;;;;;7.38;1.70;;;19.90;60.20;;;;;;5041402;28;20057;-76
2023/06/09 06:34:02;;;;;;;2.08;1.95;;;19.90;59.90;;;;;;5042858;28;20048;-74
2023/06/09 06:36:33;;;;;;;1.70;1.30;;;19.80;61.20;;;;;;5040653;28;20515;-70
2023/06/09 06:39:00;;;;;;;1.42;1.33;;;19.80;60.70;;;;;;5045033;28;20480;-73
2023/06/09 06:41:27;;;;;;;7.85;2.13;;;19.70;60.20;;;;;;5045146;28;20457;-76
2023/06/09 06:43:54;;;;;;;8.35;2.55;;;19.60;61.50;;;;;;5047030;28;20406;-78
2023/06/09 06:46:22;;;;;;;2.60;2.00;;;19.70;61.90;;;;;;5043795;28;20223;-77
2023/06/09 06:48:50;;;;;;;2.15;1.80;;;19.70;59.90;;;;;;5040482;28;20075;-74
2023/06/09 06:51:17;;;;;;;2.55;1.98;;;19.70;60.20;;;;;;5044278;28;20057;-74
2023/06/09 06:53:44;;;;;;;2.03;1.80;;;19.60;62.90;;;;;;5042962;28;20064;-74
2023/06/09 06:56:11;;;;;;;2.40;2.05;;;19.60;61.80;;;;;;5037002;28;20531;-76
2023/06/09 06:58:40;;;;;;;2.25;1.73;;;19.70;60.00;;;;;;5045439;28;20079;-73
2023/06/09 07:01:07;;;;;;;2.80;1.90;;;19.60;61.80;;;;;;5044078;28;20049;-80
2023/06/09 07:03:35;;;;;;;3.25;1.55;;;19.50;62.20;;;;;;5045851;28;20045;-75
2023/06/09 07:06:03;;;;;;;1.60;1.50;;;19.50;60.40;;;;;;5042159;28;20199;-78
2023/06/09 07:08:30;;;;;;;2.20;1.83;;;19.40;60.90;;;;;;5040266;28;20049;-76
2023/06/09 07:10:58;;;;;;;4.55;2.10;;;19.40;63.10;;;;;;5042516;28;20057;-71
2023/06/09 07:13:25;;;;;;;4.65;2.15;;;19.40;62.40;;;;;;5036896;28;20155;-73
2023/06/09 07:15:53;;;;;;;2.60;1.98;;;19.30;61.50;;;;;;5043816;28;20053;-75
2023/06/09 07:18:20;;;;;;;2.08;1.88;;;19.30;63.20;;;;;;5042418;28;20367;-75
2023/06/09 07:20:48;;;;;;;2.20;1.92;;;19.40;63.30;;;;;;5040132;28;20049;-74
2023/06/09 07:23:16;;;;;;;5.65;2.28;;;19.30;62.00;;;;;;5038093;28;20463;-72
2023/06/09 07:25:43;;;;;;;1.92;1.65;;;19.30;63.00;;;;;;5039409;28;20106;-76
2023/06/09 07:28:11;;;;;;;7.35;2.10;;;19.30;63.70;;;;;;5041268;28;20099;-74
2023/06/09 07:30:41;;;;;;;2.13;1.73;;;19.40;62.50;;;;;;5044179;28;20392;-77
2023/06/09 07:33:09;;;;;;;2.90;2.05;;;19.30;61.70;;;;;;5041344;28;20071;-72
2023/06/09 07:35:36;;;;;;;4.95;2.03;;;19.30;64.10;;;;;;5037776;28;20520;-76
2023/06/09 07:38:03;;;;;;;6.28;2.13;;;19.40;63.50;;;;;;5040333;28;20053;-79
2023/06/09 07:40:31;;;;;;;4.60;2.05;;;19.40;61.30;;;;;;5039545;28;20549;-76
2023/06/09 07:42:58;;;;;;;2.03;1.88;;;19.40;62.70;;;;;;5039528;28;20053;-81
2023/06/09 07:45:25;;;;;;;3.08;2.17;;;19.40;63.60;;;;;;5020703;28;20476;-76
2023/06/09 07:47:52;;;;;;;3.17;2.10;;;19.50;61.90;;;;;;5042913;28;20072;-77
2023/06/09 07:50:20;;;;;;;1.88;1.60;;;19.50;60.80;;;;;;5039599;28;20155;-82
2023/06/09 07:52:47;;;;;;;3.03;1.98;;;19.50;63.20;;;;;;5044533;28;20048;-72
2023/06/09 07:55:14;;;;;;;2.50;2.05;;;19.50;62.50;;;;;;5045665;28;20052;-69
2023/06/09 07:57:43;;;;;;;2.25;2.05;;;19.50;61.60;;;;;;5041774;28;20070;-80
2023/06/09 08:00:13;;;;;;;3.33;2.17;;;19.50;63.00;;;;;;5039404;28;20505;-75
2023/06/09 08:02:42;;;;;;;1.65;1.48;;;19.50;63.50;;;;;;5042574;28;20056;-79
2023/06/09 08:05:09;;;;;;;4.07;1.98;;;19.50;62.20;;;;;;5042350;28;20055;-81
2023/06/09 08:07:38;;;;;;;5.63;2.92;;;19.40;61.90;;;;;;5040220;28;20414;-76
2023/06/09 08:10:06;;;;;;;3.20;1.70;;;19.50;63.30;;;;;;5039343;28;20053;-80
2023/06/09 08:12:36;;;;;;;3.17;1.83;;;19.40;63.50;;;;;;5041398;28;20099;-79
2023/06/09 08:15:03;;;;;;;10.27;2.63;;;19.40;61.80;;;;;;5044188;28;20055;-75
2023/06/09 08:17:31;;;;;;;2.38;2.17;;;19.40;63.90;;;;;;5040566;28;20046;-76
2023/06/09 08:19:58;;;;;;;7.63;1.85;;;19.50;64.10;;;;;;5042441;28;20049;-76
2023/06/09 08:22:25;;;;;;;1.98;1.70;;;19.60;62.70;;;;;;5038592;28;20052;-76
2023/06/09 08:24:53;;;;;;;3.33;1.70;;;19.60;63.10;;;;;;5040749;28;20037;-75
2023/06/09 08:27:20;;;;;;;3.47;1.95;;;19.70;63.80;;;;;;5039255;28;20045;-77
2023/06/09 08:29:49;;;;;;;4.75;2.00;;;19.70;63.20;;;;;;5042899;28;20060;-74
2023/06/09 08:32:16;;;;;;;5.70;2.28;;;19.80;63.60;;;;;;5042993;28;20048;-79
2023/06/09 08:34:44;;;;;;;3.00;2.22;;;19.90;64.00;;;;;;5046326;28;20079;-79
2023/06/09 08:37:11;;;;;;;3.20;2.40;;;20.00;63.40;;;;;;5040038;28;20291;-78
2023/06/09 08:39:38;;;;;;;2.00;1.83;;;19.90;63.00;;;;;;5042536;28;20047;-77
2023/06/09 08:42:18;;;;;;;1.73;1.60;;;20.00;62.50;;;;;;5046085;28;20045;-77
2023/06/09 08:44:48;;;;;;;2.15;1.90;;;20.00;63.00;;;;;;5050398;28;20068;-78
2023/06/09 08:47:19;;;;;;;4.75;2.15;;;20.00;62.90;;;;;;5044175;28;20041;-77
2023/06/09 08:49:49;;;;;;;3.63;2.25;;;20.00;62.90;;;;;;5047845;28;20057;-76
2023/06/09 08:52:16;;;;;;;4.47;1.88;;;20.00;62.90;;;;;;5048637;28;20052;-82
2023/06/09 08:54:46;;;;;;;3.67;1.95;;;20.00;63.40;;;;;;5043611;28;20069;-78
2023/06/09 08:57:13;;;;;;;2.00;1.88;;;20.10;62.70;;;;;;5047891;28;20056;-75
2023/06/09 08:59:41;;;;;;;4.70;2.50;;;20.10;62.30;;;;;;5042569;28;20563;-77
2023/06/09 09:02:10;;;;;;;2.20;1.88;;;20.10;63.20;;;;;;5046502;28;20122;-80
2023/06/09 09:04:38;;;;;;;3.47;2.58;;;20.10;63.00;;;;;;5045622;28;20053;-77
2023/06/09 09:07:06;;;;;;;6.82;2.38;;;20.10;63.40;;;;;;5039547;28;20048;-80
2023/06/09 09:09:33;;;;;;;3.38;2.00;;;20.20;62.60;;;;;;5046156;28;20059;-79
2023/06/09 09:12:05;;;;;;;2.58;1.98;;;20.20;62.30;;;;;;5048630;28;20159;-79
2023/06/09 09:14:33;;;;;;;5.68;2.13;;;20.10;62.60;;;;;;5045539;28;20473;-75
2023/06/09 09:17:07;;;;;;;7.22;2.40;;;20.10;62.50;;;;;;5046070;28;20041;-75
2023/06/09 09:19:36;;;;;;;2.45;2.25;;;20.10;62.70;;;;;;5046166;28;20045;-75
2023/06/09 09:22:07;;;;;;;5.10;2.22;;;20.10;62.80;;;;;;5048221;28;20083;-75
2023/06/09 09:24:35;;;;;;;;;;;20.20;62.60;;;;;;5044935;28;20064;-78
2023/06/09 09:27:16;;;;;;;4.47;2.22;;;20.20;62.20;;;;;;5041699;28;19932;-79
2023/06/09 09:29:44;;;;;;;4.78;1.80;;;20.20;62.60;;;;;;5047094;28;20098;-79
2023/06/09 09:32:11;;;;;;;2.22;2.03;;;20.20;62.70;;;;;;5050933;28;20045;-82
2023/06/09 09:34:47;;;;;;;5.60;1.90;;;20.30;63.00;;;;;;5043150;28;20091;-75
2023/06/09 09:37:18;;;;;;;2.20;1.60;;;20.30;62.50;;;;;;5046256;28;20048;-79
2023/06/09 09:39:50;;;;;;;2.33;1.92;;;20.30;63.20;;;;;;5047981;28;20045;-78
2023/06/09 09:42:18;;;;;;;3.47;2.25;;;20.40;63.10;;;;;;5049955;28;20044;-78
2023/06/09 09:44:50;;;;;;;3.22;2.35;;;20.40;62.30;;;;;;5047553;28;20064;-79
2023/06/09 09:47:18;;;;;;;2.53;2.20;;;20.50;62.40;;;;;;5026694;28;20049;-76
2023/06/09 09:49:58;;;;;;;6.38;2.38;;;20.50;62.00;;;;;;5045472;28;20460;-78
2023/06/09 09:52:29;;;;;;;2.60;2.10;;;20.50;62.00;;;;;;5040465;28;20037;-76
2023/06/09 09:55:07;;;;;;;5.78;2.63;;;20.50;62.00;;;;;;5049291;28;20111;-73
2023/06/09 09:57:35;;;;;;;2.38;2.17;;;20.50;62.10;;;;;;5076878;28;20048;-74
2023/06/09 10:00:11;;;;;;;2.92;2.47;;;20.50;61.70;;;;;;5045582;28;20382;-76
2023/06/09 10:02:45;;;;;;;3.03;2.80;;;20.40;61.80;;;;;;5062908;28;20084;-74
2023/06/09 10:05:16;;;;;;;2.72;2.53;;;20.50;61.60;;;;;;5045349;28;20042;-76
2023/06/09 10:07:44;;;;;;;;;;;20.50;62.40;;;;;;5049710;28;20044;-77
2023/06/09 10:10:12;;;;;;;4.03;2.30;;;20.50;61.50;;;;;;5046461;28;19925;-78
2023/06/09 10:12:41;;;;;;;3.08;2.70;;;20.50;61.40;;;;;;5059309;28;20111;-75
2023/06/09 10:15:09;;;;;;;3.10;2.38;;;20.50;62.10;;;;;;5044545;28;20049;-76
2023/06/09 10:17:37;;;;;;;3.15;2.92;;;20.40;61.50;;;;;;5048377;28;20041;-75
2023/06/09 10:20:08;;;;;;;3.65;3.10;;;20.40;61.20;;;;;;5048965;28;20080;-74
2023/06/09 10:22:36;;;;;;;3.08;2.85;;;20.40;61.00;;;;;;5047415;28;20132;-74
2023/06/09 10:25:04;;;;;;;3.22;2.60;;;20.30;61.10;;;;;;5044617;28;20044;-75
2023/06/09 10:27:32;;;;;;;2.97;2.78;;;20.30;61.40;;;;;;5043846;28;20066;-79
2023/06/09 10:30:01;;;;;;;5.82;3.30;;;20.30;61.40;;;;;;5043612;28;20098;-77
2023/06/09 10:32:31;;;;;;;6.45;3.20;;;20.30;61.10;;;;;;5045736;28;20072;-77
2023/06/09 10:35:02;;;;;;;3.63;3.33;;;20.20;61.90;;;;;;5073554;28;20179;-77
2023/06/09 10:37:31;;;;;;;4.10;3.05;;;20.30;62.40;;;;;;5044514;28;20436;-77
2023/06/09 10:40:25;;;;;;;3.75;3.10;;;20.30;62.20;;;;;;5043223;28;20057;-74
2023/06/09 10:43:29;;;;;;;4.13;3.08;;;20.40;62.00;;;;;;5042253;28;20999;-74
2023/06/09 10:45:58;;;;;;;3.03;2.83;;;20.40;61.60;;;;;;5047340;28;20060;-75
2023/06/09 10:48:48;;;;;;;3.30;3.00;;;20.40;61.90;;;;;;5043781;28;20041;-75
2023/06/09 10:51:35;;;;;;;;;;;20.40;61.10;;;;;;5046749;28;20493;-75
2023/06/09 10:54:19;;;;;;;3.88;3.13;;;20.40;60.70;;;;;;5046743;28;19970;-75
2023/06/09 10:56:54;;;;;;;3.20;2.65;;;20.50;61.00;;;;;;5041510;28;20103;-79
2023/06/09 10:59:54;;;;;;;3.13;2.80;;;20.40;61.20;;;;;;5040553;28;20053;-76
2023/06/09 11:02:25;;;;;;;2.80;2.60;;;20.40;61.40;;;;;;5043599;28;20049;-77
2023/06/09 11:04:52;;;;;;;2.90;2.70;;;20.40;61.30;;;;;;5044671;28;20140;-76
2023/06/09 11:07:24;;;;;;;7.18;3.20;;;20.40;62.00;;;;;;5043277;28;20045;-75
2023/06/09 11:10:26;;;;;;;3.58;3.28;;;20.50;61.80;;;;;;5044298;28;20107;-78
2023/06/09 11:12:53;;;;;;;5.85;3.33;;;20.60;61.30;;;;;;5044673;28;20045;-72
2023/06/09 11:15:21;;;;;;;4.28;2.45;;;20.60;61.60;;;;;;5042730;28;20037;-70
2023/06/09 11:17:53;;;;;;;3.30;2.97;;;20.60;61.50;;;;;;5070448;28;20081;-71
2023/06/09 11:20:24;;;;;;;2.80;2.60;;;20.60;61.90;;;;;;5043551;28;20517;-72
2023/06/09 11:23:03;;;;;;;3.85;3.38;;;20.60;61.80;;;;;;5045120;28;20728;-71
2023/06/09 11:25:34;;;;;;;5.53;2.80;;;20.60;61.90;;;;;;5042550;28;20101;-69
2023/06/09 11:28:19;;;;;;;3.60;3.03;;;20.60;62.40;;;;;;5042386;28;20072;-72
2023/06/09 11:31:06;;;;;;;4.40;2.90;;;20.70;62.10;;;;;;5037597;28;20542;-68
2023/06/09 11:33:53;;;;;;;3.38;3.03;;;20.70;61.80;;;;;;5038423;28;20055;-68
2023/06/09 11:36:27;;;;;;;3.05;2.67;;;20.70;61.70;;;;;;5037653;28;20056;-71
2023/06/09 11:39:00;;;;;;;5.95;2.78;;;20.80;61.40;;;;;;5043019;28;20129;-71
2023/06/09 11:41:27;;;;;;;2.70;2.42;;;20.80;61.30;;;;;;5041229;28;20059;-72
2023/06/09 11:43:56;;;;;;;3.00;2.58;;;20.80;61.70;;;;;;5041501;28;20445;-72
2023/06/09 11:46:23;;;;;;;3.97;3.03;;;20.90;62.00;;;;;;5044845;28;20060;-73
2023/06/09 11:48:59;;;;;;;2.67;2.47;;;21.00;61.60;;;;;;5043672;28;20056;-70
2023/06/09 11:51:27;;;;;;;3.70;2.78;;;21.10;61.40;;;;;;5044100;28;20114;-76
2023/06/09 11:53:54;;;;;;;3.35;2.55;;;21.00;61.70;;;;;;5038564;28;20504;-72
2023/06/09 11:56:22;;;;;;;3.40;3.10;;;21.10;61.20;;;;;;5042992;28;20063;-73
2023/06/09 11:58:53;;;;;;;3.40;2.70;;;21.20;61.50;;;;;;5047059;28;20045;-74
2023/06/09 12:01:28;;;;;;;2.83;2.53;;;21.20;61.10;;;;;;5045882;28;20053;-69
2023/06/09 12:03:56;;;;;;;3.22;2.90;;;21.20;61.00;;;;;;5047474;28;20045;-67
2023/06/09 12:06:23;;;;;;;3.85;2.90;;;21.20;60.30;;;;;;5047650;28;20044;-65
2023/06/09 12:08:50;;;;;;;3.33;2.60;;;21.20;59.90;;;;;;5048994;28;20413;-65
2023/06/09 12:11:17;;;;;;;2.38;2.22;;;21.20;60.50;;;;;;5049115;28;20041;-65
2023/06/09 12:13:46;;;;;;;3.45;3.15;;;21.20;60.20;;;;;;5053671;28;20053;-65
2023/06/09 12:16:14;;;;;;;2.80;2.60;;;21.20;60.10;;;;;;5046577;28;20505;-65
2023/06/09 12:18:41;;;;;;;2.80;2.60;;;21.20;59.60;;;;;;5045903;28;20059;-65
2023/06/09 12:21:09;;;;;;;2.70;2.50;;;21.20;59.80;;;;;;5053504;28;20130;-65
2023/06/09 12:23:37;;;;;;;2.80;2.60;;;21.20;60.50;;;;;;5051511;28;20535;-65
2023/06/09 12:26:07;;;;;;;3.50;2.80;;;21.30;59.80;;;;;;5054813;28;20480;-64
2023/06/09 12:28:34;;;;;;;3.08;2.47;;;21.30;59.40;;;;;;5046152;28;20041;-65
2023/06/09 12:31:12;;;;;;;2.70;2.50;;;21.30;59.50;;;;;;5042731;28;20457;-65
2023/06/09 12:33:47;;;;;;;3.03;2.83;;;21.30;59.00;;;;;;5046854;28;20049;-65
2023/06/09 12:36:14;;;;;;;2.30;2.10;;;21.30;59.20;;;;;;5054804;28;20391;-65
2023/06/09 12:38:48;;;;;;;2.78;2.58;;;21.20;59.10;;;;;;5055289;28;20049;-66
2023/06/09 12:41:17;;;;;;;3.00;2.70;;;21.20;59.50;;;;;;5055081;28;20390;-65
2023/06/09 12:43:55;;;;;;;2.88;2.67;;;21.10;59.30;;;;;;5054614;28;20095;-65
2023/06/09 12:46:34;;;;;;;5.43;2.72;;;21.10;59.80;;;;;;5054531;28;20056;-64
2023/06/09 12:49:06;;;;;;;2.55;2.35;;;21.10;59.70;;;;;;5045870;28;20484;-64
2023/06/09 12:51:45;;;;;;;2.60;2.40;;;21.10;60.10;;;;;;5040018;28;20049;-65
2023/06/09 12:54:13;;;;;;;2.63;2.42;;;21.10;60.00;;;;;;5039472;28;20547;-65
2023/06/09 12:56:41;;;;;;;5.32;2.95;;;21.10;60.00;;;;;;5054791;28;20049;-64
2023/06/09 12:59:09;;;;;;;3.42;2.95;;;21.10;60.50;;;;;;5054618;28;20125;-66
2023/06/09 13:01:37;;;;;;;2.83;2.63;;;21.20;59.80;;;;;;5053912;28;20482;-65